Time;durP1;ratioP1;P1;durP2;ratioP2;P2;SDS_P1;SDS_P2;PMS_P1;PMS_P2;Temp;Humidity;BMP_temperature;BMP_pressure;BME280_temperature;BME280_humidity;BME280_pressure;Samples;Min_cycle;Max_cycle;Signal;HPM_P1;HPM_P2
2021/10/20 00:01:44;;;;;;;6.90;6.13;;;;;;;;;;4975853;28;20256;-85
2021/10/20 00:04:11;;;;;;;6.03;5.53;;;;;;;;;;4975275;28;20780;-86
2021/10/20 00:06:39;;;;;;;9.50;7.13;;;;;;;;;;4975490;28;20216;-86
2021/10/20 00:09:06;;;;;;;9.23;7.10;;;;;;;;;;4975300;28;20268;-86
2021/10/20 00:11:35;;;;;;;7.93;7.17;;;;;;;;;;4975379;28;20696;-86
2021/10/20 00:14:02;;;;;;;7.20;6.50;;;;;;;;;;4975140;28;20205;-86
2021/10/20 00:16:30;;;;;;;7.37;6.57;;;;;;;;;;4975211;28;20197;-86
2021/10/20 00:18:58;;;;;;;7.23;6.30;;;;;;;;;;4975192;28;20193;-86
2021/10/20 00:21:27;;;;;;;10.43;9.40;;;;;;;;;;4975517;28;20656;-86
2021/10/20 00:23:55;;;;;;;12.47;11.13;;;;;;;;;;4974929;28;20300;-86
2021/10/20 00:26:23;;;;;;;15.27;13.07;;;;;;;;;;4974011;28;20590;-86
2021/10/20 00:28:51;;;;;;;14.27;11.53;;;;;;;;;;4975313;28;20225;-86
2021/10/20 00:31:19;;;;;;;11.73;9.70;;;;;;;;;;4975350;28;20197;-86
2021/10/20 00:33:46;;;;;;;8.07;7.27;;;;;;;;;;4974553;28;20243;-86
2021/10/20 00:36:13;;;;;;;7.87;7.07;;;;;;;;;;4975008;28;20200;-86
2021/10/20 00:38:41;;;;;;;6.60;5.90;;;;;;;;;;4974861;28;20686;-86
2021/10/20 00:41:08;;;;;;;8.07;6.67;;;;;;;;;;4974949;28;20240;-87
2021/10/20 00:43:35;;;;;;;6.87;6.17;;;;;;;;;;4974522;28;20208;-86
2021/10/20 00:46:04;;;;;;;6.87;6.17;;;;;;;;;;4974707;28;20208;-86
2021/10/20 00:48:31;;;;;;;11.10;6.50;;;;;;;;;;4975184;28;20224;-85
2021/10/20 00:50:59;;;;;;;6.70;6.00;;;;;;;;;;4974951;28;20225;-86
2021/10/20 00:53:26;;;;;;;10.80;7.23;;;;;;;;;;4974573;28;20205;-86
2021/10/20 00:55:53;;;;;;;10.93;8.53;;;;;;;;;;4974517;28;20205;-86
2021/10/20 00:58:21;;;;;;;7.10;6.43;;;;;;;;;;4974593;28;20201;-87
2021/10/20 01:00:48;;;;;;;7.03;6.40;;;;;;;;;;4974589;28;20198;-86
2021/10/20 01:03:17;;;;;;;11.03;7.17;;;;;;;;;;4974733;28;20223;-85
2021/10/20 01:05:44;;;;;;;8.20;7.40;;;;;;;;;;4974169;28;20201;-86
2021/10/20 01:08:12;;;;;;;7.90;7.10;;;;;;;;;;4974282;28;20678;-86
2021/10/20 01:10:39;;;;;;;8.40;7.40;;;;;;;;;;4974389;28;20251;-86
2021/10/20 01:13:07;;;;;;;11.90;8.47;;;;;;;;;;4974626;28;20201;-86
2021/10/20 01:15:34;;;;;;;10.17;8.90;;;;;;;;;;4973945;28;20292;-86
2021/10/20 01:18:02;;;;;;;9.97;8.47;;;;;;;;;;4974197;28;20193;-86
2021/10/20 01:20:35;;;;;;;10.60;8.00;;;;;;;;;;4974196;28;20686;-87
2021/10/20 01:23:03;;;;;;;7.10;6.40;;;;;;;;;;4974167;28;20283;-86
2021/10/20 01:25:31;;;;;;;12.07;8.50;;;;;;;;;;4974301;28;20296;-87
2021/10/20 01:27:59;;;;;;;10.63;7.90;;;;;;;;;;4974096;28;20204;-86
2021/10/20 01:30:26;;;;;;;7.80;7.10;;;;;;;;;;4973882;28;20740;-86
2021/10/20 01:32:53;;;;;;;9.37;6.77;;;;;;;;;;4973797;28;20673;-87
2021/10/20 01:35:20;;;;;;;7.67;6.17;;;;;;;;;;4973679;28;20671;-87
2021/10/20 01:37:48;;;;;;;7.57;6.60;;;;;;;;;;4973416;28;20255;-86
2021/10/20 01:40:17;;;;;;;7.67;6.77;;;;;;;;;;4973835;28;20200;-86
2021/10/20 01:42:44;;;;;;;7.43;6.60;;;;;;;;;;4973717;28;20678;-86
2021/10/20 01:45:12;;;;;;;7.73;7.03;;;;;;;;;;4973432;28;20260;-85
2021/10/20 01:47:40;;;;;;;7.97;6.40;;;;;;;;;;4973645;28;20237;-85
2021/10/20 01:50:09;;;;;;;7.87;7.17;;;;;;;;;;4973406;28;20230;-84
2021/10/20 01:52:36;;;;;;;7.70;6.83;;;;;;;;;;4973799;28;20585;-85
2021/10/20 01:55:05;;;;;;;10.07;7.37;;;;;;;;;;4973141;28;20236;-85
2021/10/20 01:57:34;;;;;;;7.67;6.87;;;;;;;;;;4973406;28;20251;-84
2021/10/20 02:00:01;;;;;;;7.83;7.03;;;;;;;;;;4973723;28;20197;-83
2021/10/20 02:02:29;;;;;;;7.47;6.70;;;;;;;;;;4973702;28;20233;-83
2021/10/20 02:04:56;;;;;;;7.17;6.53;;;;;;;;;;4972906;28;20769;-82
2021/10/20 02:07:23;;;;;;;6.90;6.20;;;;;;;;;;4973585;28;20636;-83
2021/10/20 02:09:50;;;;;;;10.63;8.10;;;;;;;;;;4973096;28;20229;-83
2021/10/20 02:12:18;;;;;;;8.27;7.47;;;;;;;;;;4973265;28;20201;-83
2021/10/20 02:14:46;;;;;;;7.63;6.93;;;;;;;;;;4972801;28;20259;-83
2021/10/20 02:17:14;;;;;;;8.33;6.33;;;;;;;;;;4973152;28;20201;-83
2021/10/20 02:19:41;;;;;;;9.47;6.63;;;;;;;;;;4973015;28;20228;-83
2021/10/20 02:22:08;;;;;;;7.17;6.50;;;;;;;;;;4973093;28;20240;-83
2021/10/20 02:24:36;;;;;;;8.87;7.17;;;;;;;;;;4972834;28;20283;-83
2021/10/20 02:27:03;;;;;;;9.60;6.60;;;;;;;;;;4969681;28;20291;-84
2021/10/20 02:29:31;;;;;;;7.40;6.70;;;;;;;;;;4972427;28;20231;-84
2021/10/20 02:32:00;;;;;;;6.80;6.07;;;;;;;;;;4972968;28;20267;-84
2021/10/20 02:34:27;;;;;;;9.03;6.20;;;;;;;;;;4972851;28;20735;-85
2021/10/20 02:36:54;;;;;;;7.23;6.53;;;;;;;;;;4973646;28;20567;-84
2021/10/20 02:39:22;;;;;;;8.03;7.23;;;;;;;;;;4972925;28;20205;-86
2021/10/20 02:41:49;;;;;;;7.47;6.73;;;;;;;;;;4972891;28;20208;-85
2021/10/20 02:44:16;;;;;;;7.40;6.70;;;;;;;;;;4973005;28;20240;-84
2021/10/20 02:46:44;;;;;;;7.63;6.43;;;;;;;;;;4972860;28;20207;-85
2021/10/20 02:49:12;;;;;;;7.30;6.70;;;;;;;;;;4975048;28;20300;-85
2021/10/20 02:51:40;;;;;;;7.10;6.40;;;;;;;;;;4977109;28;20200;-84
2021/10/20 02:54:07;;;;;;;7.40;6.70;;;;;;;;;;4976652;28;20236;-84
2021/10/20 02:56:34;;;;;;;8.47;6.60;;;;;;;;;;4976459;28;20200;-84
2021/10/20 02:59:01;;;;;;;7.07;6.47;;;;;;;;;;4976636;28;20220;-85
2021/10/20 03:01:29;;;;;;;7.80;5.90;;;;;;;;;;4976410;28;20201;-86
2021/10/20 03:03:56;;;;;;;7.37;6.77;;;;;;;;;;4976514;28;20211;-84
2021/10/20 03:06:25;;;;;;;6.93;6.30;;;;;;;;;;4976366;28;20263;-85
2021/10/20 03:08:52;;;;;;;8.17;6.67;;;;;;;;;;4976667;28;20381;-84
2021/10/20 03:11:19;;;;;;;6.90;6.23;;;;;;;;;;4976375;28;20225;-84
2021/10/20 03:13:46;;;;;;;7.50;6.80;;;;;;;;;;4974174;28;20687;-84
2021/10/20 03:16:14;;;;;;;6.90;6.20;;;;;;;;;;4963293;28;20301;-85
2021/10/20 03:18:41;;;;;;;6.63;6.03;;;;;;;;;;4971471;28;20591;-83
2021/10/20 03:21:14;;;;;;;7.07;6.30;;;;;;;;;;4975157;28;20204;-83
2021/10/20 03:23:43;;;;;;;8.53;7.03;;;;;;;;;;4975472;28;20212;-83
2021/10/20 03:26:10;;;;;;;8.10;7.30;;;;;;;;;;4976139;28;20308;-83
2021/10/20 03:28:37;;;;;;;8.67;7.37;;;;;;;;;;4975943;28;20204;-83
2021/10/20 03:31:04;;;;;;;9.20;7.53;;;;;;;;;;4976019;28;20263;-84
2021/10/20 03:33:32;;;;;;;7.57;6.80;;;;;;;;;;4975691;28;20208;-84
2021/10/20 03:35:59;;;;;;;8.03;6.87;;;;;;;;;;4975786;28;20284;-84
2021/10/20 03:38:26;;;;;;;8.00;6.70;;;;;;;;;;4975861;28;20207;-83
2021/10/20 03:40:55;;;;;;;7.10;6.33;;;;;;;;;;4976041;28;20200;-84
2021/10/20 03:43:22;;;;;;;8.43;7.63;;;;;;;;;;4975994;28;20654;-84
2021/10/20 03:45:49;;;;;;;6.80;6.20;;;;;;;;;;4973176;28;20212;-83
2021/10/20 03:48:16;;;;;;;8.37;6.83;;;;;;;;;;4974990;28;20201;-83
2021/10/20 03:50:44;;;;;;;7.30;6.60;;;;;;;;;;4975036;28;20323;-83
2021/10/20 03:53:11;;;;;;;7.60;6.87;;;;;;;;;;4974631;28;20197;-83
2021/10/20 03:55:38;;;;;;;9.37;8.50;;;;;;;;;;4974543;28;20201;-83
2021/10/20 03:58:07;;;;;;;8.30;7.50;;;;;;;;;;4974745;28;20197;-83
2021/10/20 04:00:34;;;;;;;11.57;10.27;;;;;;;;;;4974188;28;20597;-83
2021/10/20 04:03:02;;;;;;;12.50;10.50;;;;;;;;;;4974775;28;20205;-83
2021/10/20 04:05:29;;;;;;;13.73;10.30;;;;;;;;;;4974666;28;20254;-83
2021/10/20 04:07:56;;;;;;;11.80;10.37;;;;;;;;;;4974531;28;20248;-83
2021/10/20 04:10:25;;;;;;;10.07;9.03;;;;;;;;;;4974611;28;20228;-82
2021/10/20 04:12:53;;;;;;;11.23;10.13;;;;;;;;;;4974644;28;20197;-83
2021/10/20 04:15:24;;;;;;;11.10;9.60;;;;;;;;;;4974431;28;20644;-83
2021/10/20 04:17:51;;;;;;;11.07;9.53;;;;;;;;;;4974510;28;20193;-84
2021/10/20 04:20:20;;;;;;;10.30;9.30;;;;;;;;;;4973979;28;20201;-83
2021/10/20 04:22:49;;;;;;;11.10;9.43;;;;;;;;;;4973979;28;20205;-83
2021/10/20 04:25:16;;;;;;;13.27;11.23;;;;;;;;;;4973906;28;20621;-83
2021/10/20 04:27:45;;;;;;;9.90;8.90;;;;;;;;;;4974279;28;20208;-83
2021/10/20 04:30:14;;;;;;;8.43;7.57;;;;;;;;;;4973915;28;20228;-83
2021/10/20 04:32:43;;;;;;;16.17;7.80;;;;;;;;;;4974302;28;20205;-83
2021/10/20 04:35:11;;;;;;;9.30;6.70;;;;;;;;;;4974562;28;20247;-83
2021/10/20 04:37:38;;;;;;;11.60;7.30;;;;;;;;;;4975257;28;20197;-83
2021/10/20 04:40:07;;;;;;;8.00;7.20;;;;;;;;;;4974785;28;20208;-83
2021/10/20 04:42:35;;;;;;;8.30;6.13;;;;;;;;;;4974597;28;20215;-83
2021/10/20 04:45:02;;;;;;;8.30;6.47;;;;;;;;;;4974928;28;20296;-83
2021/10/20 04:47:30;;;;;;;10.33;6.60;;;;;;;;;;4974418;28;20676;-83
2021/10/20 04:50:00;;;;;;;7.33;6.63;;;;;;;;;;4973555;28;20260;-84
2021/10/20 04:52:29;;;;;;;9.27;6.40;;;;;;;;;;4974815;28;20272;-85
2021/10/20 04:54:57;;;;;;;6.87;6.20;;;;;;;;;;4974516;28;20232;-84
2021/10/20 04:57:24;;;;;;;7.27;6.57;;;;;;;;;;4975028;28;20585;-84
2021/10/20 04:59:51;;;;;;;7.93;7.10;;;;;;;;;;4974176;28;20205;-83
2021/10/20 05:02:18;;;;;;;8.37;7.57;;;;;;;;;;4974558;28;20287;-84
2021/10/20 05:04:45;;;;;;;14.00;7.53;;;;;;;;;;4974293;28;20205;-84
2021/10/20 05:07:14;;;;;;;9.37;8.37;;;;;;;;;;4974550;28;20244;-84
2021/10/20 05:09:42;;;;;;;10.00;9.00;;;;;;;;;;4973914;28;20205;-84
2021/10/20 05:12:09;;;;;;;20.67;17.43;;;;;;;;;;4973746;28;20204;-83
2021/10/20 05:14:36;;;;;;;16.33;13.50;;;;;;;;;;4974194;28;20247;-84
2021/10/20 05:17:04;;;;;;;13.43;9.97;;;;;;;;;;4974275;28;20228;-84
2021/10/20 05:19:31;;;;;;;12.13;10.87;;;;;;;;;;4973903;28;20208;-84
2021/10/20 05:21:58;;;;;;;14.40;10.03;;;;;;;;;;4974537;28;20200;-83
2021/10/20 05:24:27;;;;;;;12.33;10.17;;;;;;;;;;4974412;28;20228;-84
2021/10/20 05:26:56;;;;;;;11.50;10.33;;;;;;;;;;4974108;28;20297;-84
2021/10/20 05:29:23;;;;;;;13.37;11.57;;;;;;;;;;4973814;28;20204;-84
2021/10/20 05:31:51;;;;;;;16.73;13.90;;;;;;;;;;4973977;28;20224;-84
2021/10/20 05:34:18;;;;;;;13.50;12.13;;;;;;;;;;4973634;28;20232;-84
2021/10/20 05:39:15;;;;;;;13.80;10.17;;;;;;;;;;4940790;29;20265;-83
2021/10/20 05:41:44;;;;;;;11.20;10.10;;;;;;;;;;4935733;29;20199;-83
2021/10/20 05:44:13;;;;;;;9.43;8.20;;;;;;;;;;4935150;29;20213;-84
2021/10/20 05:46:40;;;;;;;8.93;8.03;;;;;;;;;;4935692;29;20641;-85
2021/10/20 05:49:08;;;;;;;10.33;9.00;;;;;;;;;;4934935;29;20202;-84
2021/10/20 05:51:35;;;;;;;10.83;9.33;;;;;;;;;;4935654;29;20234;-84
2021/10/20 05:54:02;;;;;;;10.07;8.67;;;;;;;;;;4935070;29;20206;-84
2021/10/20 05:56:29;;;;;;;11.60;8.73;;;;;;;;;;4935350;29;20202;-83
2021/10/20 05:58:58;;;;;;;9.67;8.63;;;;;;;;;;4935085;29;20671;-84
2021/10/20 06:01:25;;;;;;;11.17;9.00;;;;;;;;;;4934964;29;20205;-84
2021/10/20 06:03:53;;;;;;;11.83;9.87;;;;;;;;;;4934926;29;20750;-84
2021/10/20 06:06:20;;;;;;;11.63;10.53;;;;;;;;;;4935162;29;20207;-84
2021/10/20 06:08:47;;;;;;;10.70;9.60;;;;;;;;;;4934907;29;20198;-84
2021/10/20 06:11:15;;;;;;;11.73;10.53;;;;;;;;;;4935145;29;20723;-84
2021/10/20 06:13:42;;;;;;;15.73;10.87;;;;;;;;;;4934953;29;20242;-84
2021/10/20 06:16:11;;;;;;;14.67;12.10;;;;;;;;;;4935100;29;20234;-84
2021/10/20 06:18:39;;;;;;;16.77;14.27;;;;;;;;;;4935059;29;20293;-84
2021/10/20 06:21:06;;;;;;;16.60;13.13;;;;;;;;;;4935236;29;20230;-84
2021/10/20 06:23:34;;;;;;;13.10;11.87;;;;;;;;;;4934720;29;20202;-84
2021/10/20 06:26:01;;;;;;;15.13;12.20;;;;;;;;;;4935176;29;20298;-85
2021/10/20 06:28:28;;;;;;;13.10;11.50;;;;;;;;;;4934858;29;20198;-84
2021/10/20 06:30:56;;;;;;;12.30;10.60;;;;;;;;;;4934469;29;20232;-84
2021/10/20 06:33:24;;;;;;;12.13;10.97;;;;;;;;;;4933658;29;20206;-84
2021/10/20 06:35:54;;;;;;;13.20;11.87;;;;;;;;;;4933930;29;20266;-85
2021/10/20 06:38:22;;;;;;;16.80;11.47;;;;;;;;;;4934659;29;20719;-84
2021/10/20 06:40:49;;;;;;;12.20;10.97;;;;;;;;;;4935068;29;20257;-84
2021/10/20 06:43:16;;;;;;;12.60;11.17;;;;;;;;;;4934525;29;20198;-84
2021/10/20 06:45:43;;;;;;;12.17;10.90;;;;;;;;;;4934823;29;20604;-84
2021/10/20 06:48:11;;;;;;;13.53;11.03;;;;;;;;;;4934563;29;20703;-84
2021/10/20 06:50:40;;;;;;;12.03;10.73;;;;;;;;;;4934744;29;20249;-84
2021/10/20 06:53:07;;;;;;;12.13;10.23;;;;;;;;;;4934495;29;20199;-84
2021/10/20 06:55:35;;;;;;;10.97;9.00;;;;;;;;;;4934791;29;20206;-84
2021/10/20 06:58:02;;;;;;;10.90;9.90;;;;;;;;;;4934248;29;20205;-85
2021/10/20 07:00:29;;;;;;;11.00;10.00;;;;;;;;;;4934597;29;20203;-84
2021/10/20 07:02:56;;;;;;;9.23;8.43;;;;;;;;;;4934357;29;20560;-85
2021/10/20 07:05:24;;;;;;;9.97;8.30;;;;;;;;;;4934732;29;20586;-85
2021/10/20 07:07:53;;;;;;;10.70;9.13;;;;;;;;;;4934725;29;20206;-84
2021/10/20 07:10:20;;;;;;;9.93;8.93;;;;;;;;;;4934460;29;20206;-85
2021/10/20 07:12:49;;;;;;;8.97;8.07;;;;;;;;;;4934501;29;20258;-84
2021/10/20 07:15:16;;;;;;;9.70;8.80;;;;;;;;;;4934644;29;20675;-84
2021/10/20 07:17:44;;;;;;;8.80;8.03;;;;;;;;;;4934648;29;20242;-84
2021/10/20 07:20:11;;;;;;;9.07;8.27;;;;;;;;;;4934910;29;20623;-85
2021/10/20 07:22:39;;;;;;;8.60;7.80;;;;;;;;;;4934280;29;20266;-84
2021/10/20 07:25:10;;;;;;;9.33;8.43;;;;;;;;;;4934493;29;20203;-84
2021/10/20 07:27:38;;;;;;;7.53;6.83;;;;;;;;;;4934729;29;20230;-85
2021/10/20 07:30:06;;;;;;;8.60;7.80;;;;;;;;;;4934451;29;20203;-84
2021/10/20 07:32:34;;;;;;;8.30;6.90;;;;;;;;;;4934018;29;20285;-85
2021/10/20 07:35:01;;;;;;;7.20;6.50;;;;;;;;;;4935583;29;20639;-84
2021/10/20 07:37:28;;;;;;;7.53;6.83;;;;;;;;;;4937691;29;20310;-85
2021/10/20 07:39:56;;;;;;;7.60;6.77;;;;;;;;;;4937728;29;20718;-84
2021/10/20 07:42:24;;;;;;;7.77;6.67;;;;;;;;;;4937727;29;20297;-84
2021/10/20 07:44:51;;;;;;;8.00;6.90;;;;;;;;;;4937563;29;20195;-84
2021/10/20 07:47:24;;;;;;;9.73;6.40;;;;;;;;;;4937269;29;20294;-83
2021/10/20 07:49:51;;;;;;;6.23;5.63;;;;;;;;;;4937653;29;20197;-85
2021/10/20 07:52:19;;;;;;;7.90;5.63;;;;;;;;;;4937351;29;20229;-85
2021/10/20 07:54:47;;;;;;;7.83;5.90;;;;;;;;;;4937739;29;20627;-86
2021/10/20 07:57:14;;;;;;;26.07;16.83;;;;;;;;;;4937647;29;20587;-85
2021/10/20 07:59:43;;;;;;;12.07;9.20;;;;;;;;;;4937451;29;20739;-85
2021/10/20 08:02:11;;;;;;;7.80;6.97;;;;;;;;;;4937947;29;20207;-85
2021/10/20 08:04:38;;;;;;;7.60;6.83;;;;;;;;;;4936997;29;20203;-85
2021/10/20 08:07:05;;;;;;;8.10;7.37;;;;;;;;;;4937188;29;20332;-85
2021/10/20 08:09:32;;;;;;;9.00;6.80;;;;;;;;;;4937163;29;20210;-85
2021/10/20 08:12:00;;;;;;;7.33;6.63;;;;;;;;;;4937303;29;20230;-85
2021/10/20 08:14:29;;;;;;;7.93;7.13;;;;;;;;;;4936770;29;20206;-87
2021/10/20 08:16:58;;;;;;;34.80;29.23;;;;;;;;;;4937055;29;20202;-86
2021/10/20 08:19:26;;;;;;;12.50;11.07;;;;;;;;;;4936884;29;20299;-86
2021/10/20 08:21:53;;;;;;;13.67;12.20;;;;;;;;;;4936724;29;20200;-85
2021/10/20 08:24:20;;;;;;;11.20;8.10;;;;;;;;;;4936901;29;20195;-86
2021/10/20 08:26:47;;;;;;;8.80;7.67;;;;;;;;;;4936763;29;20253;-85
2021/10/20 08:29:15;;;;;;;9.10;8.10;;;;;;;;;;4936792;29;20204;-85
2021/10/20 08:31:42;;;;;;;10.67;9.77;;;;;;;;;;4936324;29;20236;-86
2021/10/20 08:34:11;;;;;;;8.40;7.47;;;;;;;;;;4936479;29;20205;-86
2021/10/20 08:36:39;;;;;;;12.33;10.47;;;;;;;;;;4936765;29;20237;-85
2021/10/20 08:39:06;;;;;;;19.57;17.53;;;;;;;;;;4936455;29;20236;-85
2021/10/20 08:41:33;;;;;;;33.93;30.93;;;;;;;;;;4936638;29;20235;-85
2021/10/20 08:44:01;;;;;;;12.93;11.80;;;;;;;;;;4936258;29;20255;-85
2021/10/20 08:46:28;;;;;;;12.00;9.53;;;;;;;;;;4935793;29;20637;-85
2021/10/20 08:48:56;;;;;;;8.47;7.67;;;;;;;;;;4936434;29;20204;-85
2021/10/20 08:51:26;;;;;;;8.50;7.53;;;;;;;;;;4936139;29;20225;-85
2021/10/20 08:53:56;;;;;;;8.90;8.10;;;;;;;;;;4936234;29;20203;-85
2021/10/20 08:56:23;;;;;;;11.57;9.53;;;;;;;;;;4936272;29;20243;-84
2021/10/20 08:58:50;;;;;;;9.03;7.90;;;;;;;;;;4936086;29;20194;-85
2021/10/20 09:01:18;;;;;;;9.57;8.63;;;;;;;;;;4936491;29;20201;-84
2021/10/20 09:03:46;;;;;;;11.90;9.03;;;;;;;;;;4935794;29;20216;-85
2021/10/20 09:06:15;;;;;;;10.67;9.57;;;;;;;;;;4936311;29;20229;-85
2021/10/20 09:08:45;;;;;;;9.90;8.93;;;;;;;;;;4936068;29;20217;-85
2021/10/20 09:11:29;;;;;;;14.83;13.27;;;;;;;;;;4936409;29;22122;-85
2021/10/20 09:13:59;;;;;;;11.30;10.30;;;;;;;;;;4936034;29;20197;-85
2021/10/20 09:16:27;;;;;;;13.07;9.50;;;;;;;;;;4936087;29;20240;-85
2021/10/20 09:18:54;;;;;;;12.23;10.33;;;;;;;;;;4935690;29;20311;-84
2021/10/20 09:21:22;;;;;;;14.13;12.53;;;;;;;;;;4935996;29;20744;-84
2021/10/20 09:23:50;;;;;;;19.33;17.40;;;;;;;;;;4935697;29;20202;-84
2021/10/20 09:26:18;;;;;;;10.93;9.97;;;;;;;;;;4935655;29;20265;-83
2021/10/20 09:28:45;;;;;;;9.87;8.90;;;;;;;;;;4935952;29;20234;-84
2021/10/20 09:31:12;;;;;;;20.00;17.90;;;;;;;;;;4935677;29;20213;-84
2021/10/20 09:33:40;;;;;;;10.43;9.43;;;;;;;;;;4935264;29;20208;-84
2021/10/20 09:36:10;;;;;;;15.37;13.87;;;;;;;;;;4936012;29;20206;-85
2021/10/20 09:38:40;;;;;;;15.50;12.67;;;;;;;;;;4935343;29;20277;-83
2021/10/20 09:41:10;;;;;;;12.83;10.60;;;;;;;;;;4936091;29;20576;-84
2021/10/20 09:43:42;;;;;;;19.50;17.67;;;;;;;;;;4935158;29;20198;-83
2021/10/20 09:46:09;;;;;;;12.30;11.07;;;;;;;;;;4935972;29;20275;-84
2021/10/20 09:48:41;;;;;;;18.83;15.60;;;;;;;;;;4935293;29;20298;-84
2021/10/20 09:51:10;;;;;;;10.47;9.40;;;;;;;;;;4935396;29;20720;-84
2021/10/20 09:53:39;;;;;;;19.07;16.57;;;;;;;;;;4935230;29;20198;-84
2021/10/20 09:56:22;;;;;;;13.73;12.37;;;;;;;;;;4935432;29;20209;-84
2021/10/20 09:58:52;;;;;;;16.27;14.13;;;;;;;;;;4935056;29;20222;-84
2021/10/20 10:01:20;;;;;;;9.20;8.00;;;;;;;;;;4935178;29;20209;-84
2021/10/20 10:03:47;;;;;;;9.13;7.57;;;;;;;;;;4935038;29;20207;-84
2021/10/20 10:06:15;;;;;;;9.50;8.70;;;;;;;;;;4935208;29;20272;-84
2021/10/20 10:08:43;;;;;;;9.93;8.60;;;;;;;;;;4935329;29;20593;-85
2021/10/20 10:11:10;;;;;;;8.83;7.97;;;;;;;;;;4935066;29;20234;-84
2021/10/20 10:13:42;;;;;;;18.20;16.20;;;;;;;;;;4935062;29;20225;-85
2021/10/20 10:16:10;;;;;;;20.47;18.50;;;;;;;;;;4935162;29;20250;-84
2021/10/20 10:18:39;;;;;;;8.93;8.03;;;;;;;;;;4934958;29;20239;-84
2021/10/20 10:21:34;;;;;;;11.57;8.10;;;;;;;;;;4934792;29;20289;-84
2021/10/20 10:24:04;;;;;;;11.27;6.67;;;;;;;;;;4934842;29;20206;-84
2021/10/20 10:26:35;;;;;;;10.60;9.53;;;;;;;;;;4935169;29;20226;-85
2021/10/20 10:29:12;;;;;;;8.73;6.97;;;;;;;;;;4934752;29;20205;-84
2021/10/20 10:31:42;;;;;;;8.50;7.70;;;;;;;;;;4934625;29;20297;-84
2021/10/20 10:34:19;;;;;;;22.13;19.07;;;;;;;;;;4934587;29;20291;-85
2021/10/20 10:36:53;;;;;;;12.30;11.23;;;;;;;;;;4935056;29;20198;-84
2021/10/20 10:39:21;;;;;;;9.20;8.00;;;;;;;;;;4934473;29;20687;-85
2021/10/20 10:41:49;;;;;;;8.50;7.60;;;;;;;;;;4935341;29;20234;-85
2021/10/20 10:44:20;;;;;;;9.03;7.93;;;;;;;;;;4935194;29;20199;-85
2021/10/20 10:47:07;;;;;;;10.57;9.57;;;;;;;;;;4935033;29;20720;-84
2021/10/20 10:49:37;;;;;;;37.03;33.60;;;;;;;;;;4935094;29;20238;-85
2021/10/20 10:52:15;;;;;;;9.33;7.70;;;;;;;;;;4935522;29;20226;-84
2021/10/20 10:54:58;;;;;;;17.93;13.97;;;;;;;;;;4935227;29;20199;-85
2021/10/20 10:57:38;;;;;;;9.17;8.03;;;;;;;;;;4934946;29;20245;-85
2021/10/20 11:00:10;;;;;;;18.47;16.67;;;;;;;;;;4934620;29;20273;-85
2021/10/20 11:02:43;;;;;;;9.23;8.03;;;;;;;;;;4934567;29;20198;-86
2021/10/20 11:05:11;;;;;;;9.80;8.90;;;;;;;;;;4934966;29;20282;-85
2021/10/20 11:07:38;;;;;;;7.90;7.10;;;;;;;;;;4934421;29;20207;-86
2021/10/20 11:10:07;;;;;;;11.77;10.47;;;;;;;;;;4935813;29;20198;-86
2021/10/20 11:12:34;;;;;;;15.20;13.77;;;;;;;;;;4937961;29;20230;-85
2021/10/20 11:15:02;;;;;;;10.23;8.23;;;;;;;;;;5204462;23;20740;-88
2021/10/20 11:17:32;;;;;;;9.80;8.80;;;;;;;;;;4955272;29;20248;-88
2021/10/20 11:20:05;;;;;;;9.57;7.80;;;;;;;;;;4957617;29;20253;-87
2021/10/20 11:22:34;;;;;;;21.33;17.63;;;;;;;;;;4957872;29;20190;-87
2021/10/20 11:25:02;;;;;;;9.67;7.83;;;;;;;;;;4957438;29;20693;-87
2021/10/20 11:27:30;;;;;;;9.50;8.60;;;;;;;;;;4957396;29;20770;-87
2021/10/20 11:29:57;;;;;;;9.40;8.43;;;;;;;;;;4957721;29;20223;-87
2021/10/20 11:32:25;;;;;;;10.47;7.90;;;;;;;;;;4957163;29;20710;-89
2021/10/20 11:34:54;;;;;;;12.73;9.93;;;;;;;;;;4957158;29;20212;-87
2021/10/20 11:37:23;;;;;;;9.33;8.43;;;;;;;;;;4957312;29;20213;-87
2021/10/20 11:39:54;;;;;;;9.23;8.33;;;;;;;;;;4957233;29;20208;-88
2021/10/20 11:42:23;;;;;;;8.27;6.90;;;;;;;;;;4957297;29;20182;-88
2021/10/20 11:44:51;;;;;;;6.53;6.00;;;;;;;;;;4957380;29;20201;-87
2021/10/20 11:47:19;;;;;;;7.60;6.90;;;;;;;;;;4957215;29;20593;-87
2021/10/20 11:49:47;;;;;;;10.30;8.70;;;;;;;;;;4957002;29;20678;-88
2021/10/20 11:52:18;;;;;;;8.47;7.57;;;;;;;;;;4957097;29;20225;-88
2021/10/20 11:54:46;;;;;;;7.73;7.03;;;;;;;;;;4957119;29;20642;-88
2021/10/20 11:57:16;;;;;;;8.07;7.27;;;;;;;;;;4956937;29;20712;-88
2021/10/20 11:59:44;;;;;;;11.83;9.10;;;;;;;;;;4957272;29;20625;-88
2021/10/20 12:02:12;;;;;;;8.70;7.90;;;;;;;;;;4957103;29;20578;-89
2021/10/20 12:04:41;;;;;;;7.80;7.07;;;;;;;;;;4956886;29;20198;-89
2021/10/20 12:07:09;;;;;;;8.80;8.00;;;;;;;;;;4956653;29;20208;-88
2021/10/20 12:09:42;;;;;;;8.00;7.20;;;;;;;;;;4956705;29;20197;-87
2021/10/20 12:12:11;;;;;;;7.00;6.40;;;;;;;;;;4956578;29;20241;-88
2021/10/20 12:14:40;;;;;;;13.53;12.23;;;;;;;;;;4956473;29;20201;-88
2021/10/20 12:17:08;;;;;;;8.40;7.60;;;;;;;;;;4956781;29;20316;-88
2021/10/20 12:19:37;;;;;;;8.27;7.57;;;;;;;;;;4956779;29;20253;-88
2021/10/20 12:22:06;;;;;;;8.43;7.57;;;;;;;;;;4956304;28;20682;-87
2021/10/20 12:24:36;;;;;;;10.53;7.57;;;;;;;;;;4956390;29;20700;-88
2021/10/20 12:27:07;;;;;;;6.87;6.27;;;;;;;;;;4956531;29;20229;-88
2021/10/20 12:29:39;;;;;;;6.60;6.03;;;;;;;;;;4956525;29;20206;-87
2021/10/20 12:32:17;;;;;;;12.17;6.73;;;;;;;;;;4956149;29;20217;-87
2021/10/20 12:34:55;;;;;;;7.47;6.77;;;;;;;;;;4956332;29;20197;-88
2021/10/20 12:37:26;;;;;;;7.80;6.30;;;;;;;;;;4956314;29;20200;-88
2021/10/20 12:39:54;;;;;;;9.07;7.07;;;;;;;;;;4956526;29;20269;-87
2021/10/20 12:42:23;;;;;;;7.83;6.37;;;;;;;;;;4956097;29;20257;-89
2021/10/20 12:44:59;;;;;;;7.53;6.83;;;;;;;;;;4956415;29;20198;-89
2021/10/20 12:47:29;;;;;;;9.10;6.43;;;;;;;;;;4956290;29;20186;-88
2021/10/20 12:49:57;;;;;;;7.07;6.47;;;;;;;;;;4956136;29;20190;-87
2021/10/20 12:52:26;;;;;;;6.03;5.43;;;;;;;;;;4955985;29;20757;-88
2021/10/20 12:54:56;;;;;;;7.93;7.13;;;;;;;;;;4956130;29;20198;-88
2021/10/20 12:57:24;;;;;;;7.97;7.27;;;;;;;;;;4955908;29;20268;-88
2021/10/20 12:59:52;;;;;;;8.63;7.07;;;;;;;;;;4956115;29;20284;-88
2021/10/20 13:02:21;;;;;;;6.80;6.20;;;;;;;;;;4955782;29;20198;-88
2021/10/20 13:04:53;;;;;;;6.23;5.73;;;;;;;;;;4955608;29;20280;-88
2021/10/20 13:07:20;;;;;;;7.20;6.37;;;;;;;;;;4955942;29;20640;-88
2021/10/20 13:09:47;;;;;;;7.47;6.87;;;;;;;;;;4955615;29;20202;-88
2021/10/20 13:12:14;;;;;;;6.87;6.33;;;;;;;;;;4955676;29;20581;-88
2021/10/20 13:14:43;;;;;;;8.63;7.83;;;;;;;;;;4955398;29;20202;-88
2021/10/20 13:17:11;;;;;;;7.57;6.77;;;;;;;;;;4955774;29;20199;-88
2021/10/20 13:19:38;;;;;;;7.40;6.50;;;;;;;;;;4955623;29;20209;-87
2021/10/20 13:22:06;;;;;;;6.67;6.07;;;;;;;;;;4955296;29;20205;-88
2021/10/20 13:24:33;;;;;;;8.37;7.47;;;;;;;;;;4955322;29;20197;-87
2021/10/20 13:27:00;;;;;;;8.23;6.90;;;;;;;;;;4955223;29;20237;-87
2021/10/20 13:29:28;;;;;;;7.20;6.20;;;;;;;;;;4955575;29;20561;-87
2021/10/20 13:31:57;;;;;;;8.60;7.80;;;;;;;;;;4954713;28;20257;-87
2021/10/20 13:34:24;;;;;;;10.20;7.60;;;;;;;;;;4954889;29;20225;-87
2021/10/20 13:36:51;;;;;;;9.97;7.57;;;;;;;;;;4955056;29;20216;-86
2021/10/20 13:39:19;;;;;;;7.70;7.00;;;;;;;;;;4954828;29;20211;-88
2021/10/20 13:41:46;;;;;;;8.07;7.27;;;;;;;;;;4955321;29;20205;-87
2021/10/20 13:44:13;;;;;;;7.83;6.53;;;;;;;;;;4955307;29;20209;-87
2021/10/20 13:46:40;;;;;;;7.23;6.63;;;;;;;;;;4954935;29;20211;-87
2021/10/20 13:49:09;;;;;;;10.93;9.80;;;;;;;;;;4954894;29;20205;-87
2021/10/20 13:51:36;;;;;;;8.23;7.43;;;;;;;;;;4954965;29;20237;-87
2021/10/20 13:54:04;;;;;;;8.87;8.07;;;;;;;;;;4954885;29;20260;-86
2021/10/20 13:56:32;;;;;;;8.87;8.17;;;;;;;;;;4955164;29;20284;-87
2021/10/20 13:59:00;;;;;;;7.60;6.90;;;;;;;;;;4954884;29;20216;-88
2021/10/20 14:01:27;;;;;;;8.77;7.97;;;;;;;;;;5203290;23;20291;-85
2021/10/20 14:03:55;;;;;;;8.47;7.67;;;;;;;;;;4946670;29;20205;-85
2021/10/20 14:06:24;;;;;;;8.20;7.47;;;;;;;;;;4954075;29;20206;-85
2021/10/20 14:08:51;;;;;;;8.23;7.43;;;;;;;;;;4954681;29;20213;-84
2021/10/20 14:11:18;;;;;;;8.43;7.13;;;;;;;;;;4953961;29;20205;-85
2021/10/20 14:13:46;;;;;;;15.20;8.20;;;;;;;;;;4954215;29;20229;-85
2021/10/20 14:16:14;;;;;;;7.97;7.27;;;;;;;;;;4954127;29;20205;-85
2021/10/20 14:18:43;;;;;;;8.13;7.33;;;;;;;;;;4954239;29;20209;-85
2021/10/20 14:21:10;;;;;;;8.63;7.73;;;;;;;;;;4953871;29;20205;-85
2021/10/20 14:23:39;;;;;;;9.43;8.13;;;;;;;;;;4954218;29;20245;-85
2021/10/20 14:26:07;;;;;;;10.33;8.40;;;;;;;;;;4954325;29;20205;-85
2021/10/20 14:28:34;;;;;;;8.43;7.10;;;;;;;;;;4954150;29;20206;-85
2021/10/20 14:31:02;;;;;;;8.50;7.60;;;;;;;;;;4953972;29;20237;-85
2021/10/20 14:33:29;;;;;;;7.57;6.83;;;;;;;;;;4954000;29;20727;-84
2021/10/20 14:35:56;;;;;;;8.00;7.27;;;;;;;;;;4954145;29;20215;-85
2021/10/20 14:38:23;;;;;;;8.70;7.87;;;;;;;;;;4954015;29;20299;-86
2021/10/20 14:40:54;;;;;;;9.20;8.30;;;;;;;;;;4953790;29;20255;-85
2021/10/20 14:43:23;;;;;;;10.33;8.57;;;;;;;;;;4953954;28;20269;-86
2021/10/20 14:45:51;;;;;;;11.97;9.53;;;;;;;;;;4956755;29;20255;-85